Time;durP1;ratioP1;P1;durP2;ratioP2;P2;SDS_P1;SDS_P2;PMS_P1;PMS_P2;Temp;Humidity;BMP_temperature;BMP_pressure;BME280_temperature;BME280_humidity;BME280_pressure;Samples;Min_cycle;Max_cycle;Signal;HPM_P1;HPM_P2
2023/05/19 00:00:59;;;;;;;10.93;4.35;;;;;;;;;;5033940;28;20025;-75
2023/05/19 00:03:25;;;;;;;8.68;3.35;;;;;;;;;;5051981;28;20029;-75
2023/05/19 00:05:52;;;;;;;8.55;3.78;;;;;;;;;;5051394;28;20028;-75
2023/05/19 00:08:19;;;;;;;7.60;3.58;;;;;;;;;;5050850;28;20032;-75
2023/05/19 00:10:46;;;;;;;6.18;3.88;;;;;;;;;;5033657;28;20028;-75
2023/05/19 00:13:12;;;;;;;7.95;3.50;;;;;;;;;;5051427;28;20028;-76
2023/05/19 00:15:38;;;;;;;5.88;3.22;;;;;;;;;;5051258;28;20096;-74
2023/05/19 00:18:07;;;;;;;5.80;3.35;;;;;;;;;;5050629;28;20109;-76
2023/05/19 00:20:33;;;;;;;7.40;3.30;;;;;;;;;;5051257;28;20029;-75
2023/05/19 00:22:59;;;;;;;5.93;3.05;;;;;;;;;;5051092;28;20052;-76
2023/05/19 00:25:26;;;;;;;8.55;3.25;;;;;;;;;;5051297;28;20021;-76
2023/05/19 00:27:52;;;;;;;7.32;3.40;;;;;;;;;;5050284;28;20033;-76
2023/05/19 00:30:18;;;;;;;7.82;4.15;;;;;;;;;;5051196;28;20017;-74
2023/05/19 00:32:44;;;;;;;7.15;3.03;;;;;;;;;;5033145;28;20483;-74
2023/05/19 00:35:10;;;;;;;7.93;3.10;;;;;;;;;;5049960;28;20636;-74
2023/05/19 00:37:36;;;;;;;7.50;2.85;;;;;;;;;;5050296;28;20040;-74
2023/05/19 00:40:04;;;;;;;5.15;3.10;;;;;;;;;;5051309;28;20046;-74
2023/05/19 00:42:31;;;;;;;7.28;3.50;;;;;;;;;;5050929;28;20033;-74
2023/05/19 00:44:57;;;;;;;7.78;3.50;;;;;;;;;;5051278;28;20119;-75
2023/05/19 00:47:23;;;;;;;8.98;3.80;;;;;;;;;;5032096;28;20029;-75
2023/05/19 00:49:49;;;;;;;8.23;4.10;;;;;;;;;;5050868;28;20102;-75
2023/05/19 00:52:15;;;;;;;6.50;3.70;;;;;;;;;;5050649;28;20040;-75
2023/05/19 00:54:42;;;;;;;7.25;4.00;;;;;;;;;;5103564;22;20419;-78
2023/05/19 00:57:08;;;;;;;6.15;3.40;;;;;;;;;;5064204;28;20056;-76
2023/05/19 00:59:35;;;;;;;7.50;3.25;;;;;;;;;;5065365;28;20055;-77
2023/05/19 01:02:01;;;;;;;8.10;3.65;;;;;;;;;;5064021;28;20020;-78
2023/05/19 01:04:28;;;;;;;5.95;3.70;;;;;;;;;;5046936;28;20029;-77
2023/05/19 01:06:54;;;;;;;5.63;3.25;;;;;;;;;;5066435;28;20032;-78
2023/05/19 01:09:21;;;;;;;8.38;3.70;;;;;;;;;;5047417;28;20029;-78
2023/05/19 01:11:47;;;;;;;6.82;3.13;;;;;;;;;;5066013;28;20088;-77
2023/05/19 01:14:14;;;;;;;8.20;3.53;;;;;;;;;;5046627;28;20029;-77
2023/05/19 01:16:42;;;;;;;9.85;3.60;;;;;;;;;;5064413;28;20452;-77
2023/05/19 01:19:26;;;;;;;5.63;3.53;;;;;;;;;;5061065;28;20464;-77
2023/05/19 01:22:11;;;;;;;8.52;3.85;;;;;;;;;;5045803;28;20296;-77
2023/05/19 01:25:05;;;;;;;5.95;3.22;;;;;;;;;;5063065;28;20514;-77
2023/05/19 01:27:34;;;;;;;5.50;2.92;;;;;;;;;;5062929;28;20027;-76
2023/05/19 01:30:03;;;;;;;6.57;3.65;;;;;;;;;;5063678;28;20032;-77
2023/05/19 01:32:30;;;;;;;7.10;3.90;;;;;;;;;;5058017;28;20044;-77
2023/05/19 01:34:56;;;;;;;5.28;3.22;;;;;;;;;;5058433;28;20460;-77
2023/05/19 01:37:23;;;;;;;6.32;3.38;;;;;;;;;;5060364;28;20053;-77
2023/05/19 01:39:49;;;;;;;6.93;3.92;;;;;;;;;;5043324;28;20088;-77
2023/05/19 01:42:16;;;;;;;7.50;4.20;;;;;;;;;;5058813;28;20025;-77
2023/05/19 01:44:43;;;;;;;7.95;3.90;;;;;;;;;;5055226;28;20095;-76
2023/05/19 01:47:09;;;;;;;7.13;3.97;;;;;;;;;;5053435;28;20104;-76
2023/05/19 01:49:35;;;;;;;6.55;3.42;;;;;;;;;;5054112;28;20023;-75
2023/05/19 01:52:02;;;;;;;7.82;3.92;;;;;;;;;;5054462;28;20452;-77
2023/05/19 01:54:28;;;;;;;9.25;3.60;;;;;;;;;;5056433;28;20068;-78
2023/05/19 01:57:05;;;;;;;6.00;4.07;;;;;;;;;;5058390;28;20025;-77
2023/05/19 02:00:04;;;;;;;7.03;3.78;;;;;;;;;;5057575;28;20100;-77
2023/05/19 02:02:49;;;;;;;8.15;4.13;;;;;;;;;;5019603;28;20120;-76
2023/05/19 02:05:28;;;;;;;12.27;4.07;;;;;;;;;;5054201;28;20059;-78
2023/05/19 02:08:01;;;;;;;6.63;3.75;;;;;;;;;;5053209;28;20087;-76
2023/05/19 02:10:31;;;;;;;6.88;4.22;;;;;;;;;;5054421;28;20067;-77
2023/05/19 02:13:00;;;;;;;13.68;4.05;;;;;;;;;;5054639;28;20040;-77
2023/05/19 02:15:29;;;;;;;5.25;3.03;;;;;;;;;;5054179;28;20025;-77
2023/05/19 02:17:59;;;;;;;6.88;3.10;;;;;;;;;;5053229;28;20116;-77
2023/05/19 02:20:24;;;;;;;6.47;3.63;;;;;;;;;;5053782;28;20158;-76
2023/05/19 02:22:51;;;;;;;6.75;3.47;;;;;;;;;;5055730;28;20048;-77
2023/05/19 02:25:17;;;;;;;6.72;3.47;;;;;;;;;;5057593;28;20049;-76
2023/05/19 02:27:43;;;;;;;6.50;3.65;;;;;;;;;;5053384;28;20588;-77
2023/05/19 02:30:09;;;;;;;8.40;4.20;;;;;;;;;;5053738;28;20147;-77
2023/05/19 02:32:35;;;;;;;7.13;4.25;;;;;;;;;;5053653;28;20192;-76
2023/05/19 02:35:01;;;;;;;6.40;3.33;;;;;;;;;;5053391;28;20435;-77
2023/05/19 02:37:28;;;;;;;7.32;4.38;;;;;;;;;;5054695;28;20025;-77
2023/05/19 02:39:54;;;;;;;8.65;4.15;;;;;;;;;;5035920;28;20028;-77
2023/05/19 02:42:20;;;;;;;7.55;4.00;;;;;;;;;;5055392;28;20025;-77
2023/05/19 02:44:46;;;;;;;9.27;3.83;;;;;;;;;;5054282;28;20025;-77
2023/05/19 02:47:13;;;;;;;7.28;3.80;;;;;;;;;;5058218;28;20084;-78
2023/05/19 02:49:39;;;;;;;8.95;4.47;;;;;;;;;;5043467;28;20029;-78
2023/05/19 02:52:06;;;;;;;7.13;3.72;;;;;;;;;;5061437;28;20025;-78
2023/05/19 02:54:32;;;;;;;9.05;4.38;;;;;;;;;;5044628;28;20033;-77
2023/05/19 02:56:59;;;;;;;9.95;4.53;;;;;;;;;;5062147;28;20040;-77
2023/05/19 02:59:25;;;;;;;7.75;4.18;;;;;;;;;;5060830;28;20081;-78
2023/05/19 03:01:55;;;;;;;6.25;4.10;;;;;;;;;;5042433;28;20033;-78
2023/05/19 03:04:21;;;;;;;12.02;4.50;;;;;;;;;;5058514;28;20025;-77
2023/05/19 03:06:47;;;;;;;10.20;4.97;;;;;;;;;;5056896;28;20031;-78
2023/05/19 03:09:14;;;;;;;9.73;4.63;;;;;;;;;;5041135;28;20029;-77
2023/05/19 03:11:40;;;;;;;9.35;4.72;;;;;;;;;;5061822;28;20021;-78
2023/05/19 03:14:08;;;;;;;7.57;4.60;;;;;;;;;;5043258;28;20506;-77
2023/05/19 03:16:34;;;;;;;5.60;4.00;;;;;;;;;;5060772;28;20017;-77
2023/05/19 03:19:00;;;;;;;8.63;3.85;;;;;;;;;;5058138;28;20476;-77
2023/05/19 03:21:26;;;;;;;9.27;4.20;;;;;;;;;;5052748;28;20108;-77
2023/05/19 03:23:53;;;;;;;12.38;4.63;;;;;;;;;;5052764;28;20024;-77
2023/05/19 03:26:19;;;;;;;10.10;4.45;;;;;;;;;;5053303;28;20577;-77
2023/05/19 03:28:45;;;;;;;8.43;4.25;;;;;;;;;;5034257;28;20096;-77
2023/05/19 03:31:11;;;;;;;8.70;4.15;;;;;;;;;;5053015;28;20117;-77
2023/05/19 03:33:37;;;;;;;7.10;4.13;;;;;;;;;;5052221;28;20108;-77
2023/05/19 03:36:03;;;;;;;9.65;4.90;;;;;;;;;;5045089;28;20513;-77
2023/05/19 03:38:29;;;;;;;10.27;4.47;;;;;;;;;;5033510;28;20025;-77
2023/05/19 03:40:55;;;;;;;8.40;4.28;;;;;;;;;;5053182;28;20032;-77
2023/05/19 03:43:21;;;;;;;6.13;3.88;;;;;;;;;;5052255;28;20025;-77
2023/05/19 03:45:47;;;;;;;5.70;4.03;;;;;;;;;;5051785;28;20032;-77
2023/05/19 03:48:14;;;;;;;5.45;3.72;;;;;;;;;;5051416;28;20044;-77
2023/05/19 03:50:41;;;;;;;8.43;4.88;;;;;;;;;;5052210;28;20071;-77
2023/05/19 03:53:07;;;;;;;6.18;3.88;;;;;;;;;;5056083;28;20029;-78
2023/05/19 03:55:36;;;;;;;6.20;3.85;;;;;;;;;;5037335;28;20471;-78
2023/05/19 03:58:02;;;;;;;8.88;3.65;;;;;;;;;;5052814;28;20479;-78
2023/05/19 04:00:28;;;;;;;8.35;4.57;;;;;;;;;;5035473;28;20440;-78
2023/05/19 04:02:54;;;;;;;7.47;3.22;;;;;;;;;;5054154;28;20051;-78
2023/05/19 04:05:20;;;;;;;7.72;3.42;;;;;;;;;;5054909;28;20035;-78
2023/05/19 04:07:46;;;;;;;7.95;3.95;;;;;;;;;;5054343;28;20454;-77
2023/05/19 04:10:12;;;;;;;6.55;3.80;;;;;;;;;;5053485;28;20024;-77
2023/05/19 04:12:38;;;;;;;9.25;4.03;;;;;;;;;;5053032;28;20024;-77
2023/05/19 04:15:10;;;;;;;6.68;3.60;;;;;;;;;;5056293;28;20021;-77
2023/05/19 04:17:36;;;;;;;6.15;3.90;;;;;;;;;;5058973;28;20495;-77
2023/05/19 04:20:02;;;;;;;8.32;3.83;;;;;;;;;;5059445;28;20032;-77
2023/05/19 04:22:28;;;;;;;7.22;3.92;;;;;;;;;;5054401;28;20078;-78
2023/05/19 04:24:55;;;;;;;7.53;4.07;;;;;;;;;;5052809;28;20039;-77
2023/05/19 04:27:21;;;;;;;9.13;4.63;;;;;;;;;;5050979;28;20021;-77
2023/05/19 04:29:48;;;;;;;7.82;4.15;;;;;;;;;;5051553;28;20021;-77
2023/05/19 04:32:16;;;;;;;6.88;3.45;;;;;;;;;;5052710;28;20017;-77
2023/05/19 04:34:44;;;;;;;8.00;3.72;;;;;;;;;;5053404;28;20025;-77
2023/05/19 04:37:10;;;;;;;7.57;3.72;;;;;;;;;;5054373;28;20028;-77
2023/05/19 04:39:44;;;;;;;5.13;3.40;;;;;;;;;;5056353;28;20029;-77
2023/05/19 04:42:10;;;;;;;7.35;3.65;;;;;;;;;;5068643;28;20040;-77
2023/05/19 04:44:38;;;;;;;8.10;4.15;;;;;;;;;;5077041;28;20032;-76
2023/05/19 04:47:05;;;;;;;8.63;3.83;;;;;;;;;;5071256;28;20092;-74
2023/05/19 04:49:31;;;;;;;7.47;3.92;;;;;;;;;;5071423;28;20366;-76
2023/05/19 04:51:58;;;;;;;7.63;3.80;;;;;;;;;;5038409;28;20474;-78
2023/05/19 04:54:25;;;;;;;7.15;3.58;;;;;;;;;;5041844;28;20119;-77
2023/05/19 04:56:51;;;;;;;8.52;4.05;;;;;;;;;;5071275;28;20020;-78
2023/05/19 04:59:17;;;;;;;9.88;3.95;;;;;;;;;;5070694;28;20032;-78
2023/05/19 05:01:43;;;;;;;9.10;3.90;;;;;;;;;;5071310;28;20043;-78
2023/05/19 05:04:09;;;;;;;7.60;3.72;;;;;;;;;;5053014;28;20598;-78
2023/05/19 05:06:37;;;;;;;6.78;4.25;;;;;;;;;;5071743;28;20440;-78
2023/05/19 05:09:03;;;;;;;9.18;3.65;;;;;;;;;;5066225;28;20052;-78
2023/05/19 05:11:29;;;;;;;5.90;3.60;;;;;;;;;;5059181;28;20046;-77
2023/05/19 05:13:58;;;;;;;7.30;4.20;;;;;;;;;;5059743;28;20021;-78
2023/05/19 05:16:24;;;;;;;7.38;3.50;;;;;;;;;;5056478;28;20604;-78
2023/05/19 05:18:50;;;;;;;7.50;3.65;;;;;;;;;;5055522;28;20051;-78
2023/05/19 05:21:20;;;;;;;7.15;3.88;;;;;;;;;;5057808;28;20009;-78
2023/05/19 05:23:46;;;;;;;6.97;4.00;;;;;;;;;;5063145;28;20029;-78
2023/05/19 05:26:18;;;;;;;7.53;3.85;;;;;;;;;;5061578;28;20055;-77
2023/05/19 05:28:44;;;;;;;7.20;3.15;;;;;;;;;;5061094;28;20158;-77
2023/05/19 05:31:10;;;;;;;8.73;3.58;;;;;;;;;;5062496;28;20025;-78
2023/05/19 05:33:37;;;;;;;6.95;4.05;;;;;;;;;;5066744;28;20081;-75
2023/05/19 05:36:03;;;;;;;7.32;3.90;;;;;;;;;;5059100;28;20471;-78
2023/05/19 05:38:29;;;;;;;7.20;3.80;;;;;;;;;;5050503;28;20075;-76
2023/05/19 05:40:55;;;;;;;6.38;3.35;;;;;;;;;;5055304;28;20438;-78
2023/05/19 05:43:21;;;;;;;4.60;3.22;;;;;;;;;;5062524;28;20122;-76
2023/05/19 05:45:47;;;;;;;7.40;3.90;;;;;;;;;;5052994;28;20033;-75
2023/05/19 05:48:14;;;;;;;5.32;3.20;;;;;;;;;;5056576;28;20033;-78
2023/05/19 05:50:42;;;;;;;4.78;3.00;;;;;;;;;;5054316;28;20479;-77
2023/05/19 05:53:08;;;;;;;8.00;3.13;;;;;;;;;;5053247;28;20028;-77
2023/05/19 05:55:35;;;;;;;9.70;3.83;;;;;;;;;;5054822;28;20045;-77
2023/05/19 05:58:02;;;;;;;5.85;3.53;;;;;;;;;;5054273;28;20074;-77
2023/05/19 06:00:28;;;;;;;5.85;3.10;;;;;;;;;;5054356;28;20025;-77
2023/05/19 06:02:55;;;;;;;5.20;3.50;;;;;;;;;;5061593;28;20090;-78
2023/05/19 06:05:21;;;;;;;6.53;3.70;;;;;;;;;;5063257;28;20036;-78
2023/05/19 06:07:48;;;;;;;5.32;3.10;;;;;;;;;;5057249;28;20055;-77
2023/05/19 06:10:14;;;;;;;8.82;3.72;;;;;;;;;;5046247;28;20021;-77
2023/05/19 06:12:41;;;;;;;8.48;4.45;;;;;;;;;;5035174;28;20025;-77
2023/05/19 06:15:08;;;;;;;8.73;3.25;;;;;;;;;;5032576;28;20028;-77
2023/05/19 06:17:34;;;;;;;11.25;3.88;;;;;;;;;;5039796;28;20041;-77
2023/05/19 06:20:01;;;;;;;8.63;3.47;;;;;;;;;;5039429;28;20025;-78
2023/05/19 06:22:29;;;;;;;7.28;3.40;;;;;;;;;;5060263;28;20044;-79
2023/05/19 06:24:55;;;;;;;6.60;3.22;;;;;;;;;;5043608;28;20017;-78
2023/05/19 06:27:21;;;;;;;5.05;3.15;;;;;;;;;;5041968;28;20025;-78
2023/05/19 06:29:47;;;;;;;6.72;3.30;;;;;;;;;;5043623;28;20017;-78
2023/05/19 06:32:14;;;;;;;7.45;3.17;;;;;;;;;;5059262;28;20031;-78
2023/05/19 06:34:40;;;;;;;5.45;2.95;;;;;;;;;;5042254;28;20063;-78
2023/05/19 06:37:06;;;;;;;7.45;3.65;;;;;;;;;;5041211;28;20025;-78
2023/05/19 06:39:32;;;;;;;5.00;3.00;;;;;;;;;;5061054;28;20029;-79
2023/05/19 06:41:58;;;;;;;8.45;2.88;;;;;;;;;;5043655;28;20028;-78
2023/05/19 06:44:24;;;;;;;4.65;2.95;;;;;;;;;;5042353;28;20728;-78
2023/05/19 06:46:50;;;;;;;5.28;2.63;;;23.00;39.00;;;;;;5043246;28;20032;-79
2023/05/19 06:49:16;;;;;;;6.75;3.22;;;23.50;37.90;;;;;;5044856;28;20026;-78
2023/05/19 06:51:42;;;;;;;8.73;3.53;;;;;;;;;;5061891;28;20502;-78
2023/05/19 06:54:09;;;;;;;8.35;3.15;;;;;;;;;;5085769;22;20043;-77
2023/05/19 06:56:36;;;;;;;6.53;3.33;;;;;;;;;;5052830;28;20432;-77
2023/05/19 06:59:02;;;;;;;4.97;2.85;;;;;;;;;;5052081;28;20112;-77
2023/05/19 07:01:28;;;;;;;6.65;2.83;;;;;;;;;;5052703;28;20368;-77
2023/05/19 07:03:55;;;;;;;4.97;3.33;;;;;;;;;;5052483;28;20021;-77
2023/05/19 07:06:21;;;;;;;8.20;3.80;;;;;;;;;;5052632;28;20044;-77
2023/05/19 07:08:47;;;;;;;5.88;3.65;;;;;;;;;;5033891;28;20032;-77
2023/05/19 07:11:13;;;;;;;7.60;4.03;;;;;;;;;;5052130;28;20032;-77
2023/05/19 07:13:39;;;;;;;7.25;3.65;;;;;;;;;;5052506;28;20021;-77
2023/05/19 07:16:05;;;;;;;7.57;3.88;;;;;;;;;;5052280;28;20025;-77
2023/05/19 07:18:31;;;;;;;7.22;4.10;;;;;;;;;;5050007;28;20029;-77
2023/05/19 07:20:57;;;;;;;5.30;3.13;;;;;;;;;;5049735;28;20029;-77
2023/05/19 07:23:23;;;;;;;8.45;4.03;;;;;;;;;;5051501;28;20821;-77
2023/05/19 07:25:53;;;;;;;5.88;3.47;;;;;;;;;;5051371;28;20064;-78
2023/05/19 07:28:19;;;;;;;7.75;3.65;;;;;;;;;;5051700;28;20199;-79
2023/05/19 07:30:45;;;;;;;6.13;3.83;;;;;;;;;;5051258;28;20506;-78
2023/05/19 07:33:11;;;;;;;5.85;3.20;;;;;;;;;;5052468;28;20095;-78
2023/05/19 07:35:37;;;;;;;5.63;3.22;;;;;;;;;;5052419;28;20021;-78
2023/05/19 07:38:03;;;;;;;8.18;3.88;;;;;;;;;;5047604;28;20388;-78
2023/05/19 07:40:29;;;;;;;5.47;3.88;;;;;;;;;;5054378;28;20029;-76
2023/05/19 07:42:55;;;;;;;5.95;3.85;;;;;;;;;;5056381;28;20035;-79
2023/05/19 07:45:21;;;;;;;6.25;3.45;;;;;;;;;;5051272;28;20494;-76
2023/05/19 07:47:47;;;;;;;6.78;3.70;;;;;;;;;;5051440;28;20111;-76
2023/05/19 07:50:13;;;;;;;5.50;3.88;;;;;;;;;;5050718;28;20083;-77
2023/05/19 07:52:40;;;;;;;7.10;3.80;;;;;;;;;;5051586;28;20049;-75
2023/05/19 07:55:07;;;;;;;5.95;3.45;;;;;;;;;;5051350;28;20083;-76
2023/05/19 07:57:33;;;;;;;5.50;3.08;;;;;;;;;;5048284;28;20453;-76
2023/05/19 07:59:59;;;;;;;4.18;3.15;;;;;;;;;;5067059;28;20025;-77
2023/05/19 08:02:25;;;;;;;5.30;3.55;;;;;;;;;;5050114;28;20025;-77
2023/05/19 08:04:51;;;;;;;8.13;3.25;;;;;;;;;;5064167;28;20025;-79
2023/05/19 08:07:17;;;;;;;10.30;3.10;;;;;;;;;;5049100;28;20372;-76
2023/05/19 08:09:43;;;;;;;3.83;3.30;;;;;;;;;;5049515;28;20086;-76
2023/05/19 08:12:09;;;;;;;4.70;3.00;;;;;;;;;;5049657;28;20031;-76
2023/05/19 08:14:36;;;;;;;5.00;3.00;;;;;;;;;;5032450;28;20029;-77
2023/05/19 08:17:02;;;;;;;5.43;3.05;;;;;;;;;;5032792;28;20445;-77
2023/05/19 08:19:28;;;;;;;5.63;3.22;;;;;;;;;;5051381;28;20442;-78
2023/05/19 08:21:57;;;;;;;5.72;2.85;;;;;;;;;;5050859;28;20024;-76
2023/05/19 08:24:23;;;;;;;6.50;3.50;;;;;;;;;;5034150;28;20060;-78
2023/05/19 08:26:48;;;;;;;5.05;2.78;;;;;;;;;;5052149;28;20028;-76
2023/05/19 08:29:15;;;;;;;3.28;2.78;;;;;;;;;;5052344;28;20395;-77
2023/05/19 08:31:41;;;;;;;7.57;3.17;;;;;;;;;;5056004;28;20372;-76
2023/05/19 08:34:07;;;;;;;3.65;2.50;;;;;;;;;;5056310;28;20024;-75
2023/05/19 08:36:33;;;;;;;6.88;3.20;;;;;;;;;;5034358;28;20024;-76
2023/05/19 08:38:59;;;;;;;8.05;3.40;;;;;;;;;;5050717;28;20025;-76
2023/05/19 08:41:25;;;;;;;7.90;3.53;;;;;;;;;;5051151;28;20024;-76
2023/05/19 08:43:51;;;;;;;7.43;3.33;;;;;;;;;;5051368;28;20048;-76
2023/05/19 08:46:17;;;;;;;4.35;2.78;;;;;;;;;;5051094;28;20164;-76
2023/05/19 08:48:44;;;;;;;11.50;3.83;;;;;;;;;;5050252;28;20115;-75
2023/05/19 08:51:13;;;;;;;5.30;3.08;;;;;;;;;;5050882;28;20039;-75
2023/05/19 08:53:42;;;;;;;7.13;3.22;;;;;;;;;;5051101;28;20813;-76
2023/05/19 08:56:09;;;;;;;4.70;2.90;;;;;;;;;;5050890;28;20040;-75
2023/05/19 08:58:38;;;;;;;6.00;3.15;;;;;;;;;;5050391;28;20368;-76
2023/05/19 09:01:05;;;;;;;5.40;3.20;;;;;;;;;;5050842;28;20025;-77
2023/05/19 09:03:36;;;;;;;7.68;3.25;;;;;;;;;;5050865;28;20497;-76
2023/05/19 09:06:05;;;;;;;7.20;3.53;;;;;;;;;;5050608;28;20044;-76
2023/05/19 09:08:31;;;;;;;9.52;3.33;;;;;;;;;;5050365;28;20075;-77
2023/05/19 09:10:57;;;;;;;5.00;3.22;;;;;;;;;;5050615;28;20017;-76
2023/05/19 09:13:23;;;;;;;5.68;3.70;;;;;;;;;;5032816;28;20076;-76
2023/05/19 09:15:50;;;;;;;7.22;4.07;;;;;;;;;;5052923;28;20025;-76
2023/05/19 09:18:16;;;;;;;8.02;3.78;;;;;;;;;;5054538;28;20082;-76
2023/05/19 09:20:43;;;;;;;7.30;3.25;;;;;;;;;;5055204;28;20029;-75
2023/05/19 09:23:15;;;;;;;6.75;3.63;;;;;;;;;;5054984;28;20021;-76
2023/05/19 09:25:51;;;;;;;6.28;3.33;;;;;;;;;;5054686;28;20029;-75
2023/05/19 09:28:28;;;;;;;6.97;3.03;;;;;;;;;;5053643;28;20094;-77
2023/05/19 09:31:03;;;;;;;5.20;3.05;;;;;;;;;;5054648;28;20028;-76
2023/05/19 09:33:29;;;;;;;6.97;3.28;;;;;;;;;;5054513;28;20442;-76
2023/05/19 09:35:56;;;;;;;7.85;3.38;;;;;;;;;;5054641;28;20074;-75
2023/05/19 09:38:26;;;;;;;5.00;3.10;;;;;;;;;;5053749;28;20440;-76
2023/05/19 09:40:56;;;;;;;6.00;2.58;;;;;;;;;;5054405;28;20029;-78
2023/05/19 09:43:22;;;;;;;4.83;2.90;;;;;;;;;;5054073;28;20116;-78
2023/05/19 09:45:54;;;;;;;7.45;2.83;;;;;;;;;;5053999;28;20302;-76
2023/05/19 09:48:20;;;;;;;6.53;2.90;;;;;;;;;;5053508;28;20036;-76
2023/05/19 09:50:50;;;;;;;4.90;2.90;;;;;;;;;;5036034;28;20071;-76
2023/05/19 09:53:17;;;;;;;10.95;3.55;;;;;;;;;;5053912;28;20079;-77
2023/05/19 09:55:43;;;;;;;6.43;3.10;;;;;;;;;;5052662;28;20033;-77
2023/05/19 09:58:09;;;;;;;5.13;3.28;;;;;;;;;;5053196;28;20048;-77
2023/05/19 10:00:35;;;;;;;5.22;3.40;;;;;;;;;;5053742;28;20033;-77
2023/05/19 10:03:03;;;;;;;6.15;3.47;;;;;;;;;;5054072;28;20025;-77
2023/05/19 10:05:30;;;;;;;5.97;3.20;;;;;;;;;;5053857;28;20391;-76
2023/05/19 10:07:56;;;;;;;5.03;3.47;;;;;;;;;;5053069;28;20033;-76
2023/05/19 10:10:22;;;;;;;6.68;2.97;;;;;;;;;;5051326;28;20039;-77
2023/05/19 10:12:48;;;;;;;3.50;2.92;;;;;;;;;;5051664;28;20029;-76
2023/05/19 10:15:16;;;;;;;6.57;3.85;;;;;;;;;;5055571;28;20618;-75
2023/05/19 10:17:43;;;;;;;6.32;3.30;;;;;;;;;;5056179;28;20059;-76
2023/05/19 10:20:11;;;;;;;4.97;3.10;;;;;;;;;;5056537;28;20025;-75
2023/05/19 10:22:41;;;;;;;4.93;3.47;;;;;;;;;;5062122;28;20102;-75
2023/05/19 10:25:08;;;;;;;7.97;2.78;;;;;;;;;;5054016;28;20036;-76
2023/05/19 10:27:40;;;;;;;7.10;3.35;;;;;;;;;;5053423;28;20029;-77
2023/05/19 10:30:15;;;;;;;5.40;3.17;;;;;;;;;;5054246;28;20047;-77
2023/05/19 10:32:41;;;;;;;5.95;3.30;;;;;;;;;;5035321;28;20104;-77
2023/05/19 10:35:07;;;;;;;4.88;3.13;;;;;;;;;;5053545;28;20100;-78
2023/05/19 10:37:54;;;;;;;4.57;3.05;;;;;;;;;;5034502;28;20024;-77
2023/05/19 10:40:23;;;;;;;6.45;3.15;;;;;;;;;;5054108;28;20083;-76
2023/05/19 10:43:06;;;;;;;6.18;3.30;;;;;;;;;;5035043;28;20059;-77
2023/05/19 10:45:34;;;;;;;6.03;3.22;;;;;;;;;;5051284;28;20108;-77
2023/05/19 10:48:00;;;;;;;4.97;3.00;;;;;;;;;;5030537;28;20040;-76
2023/05/19 10:50:26;;;;;;;8.15;3.13;;;;;;;;;;5030834;28;20063;-77
2023/05/19 10:52:54;;;;;;;6.60;3.03;;;;;;;;;;5032202;28;20526;-77
2023/05/19 10:55:40;;;;;;;8.93;3.33;;;;;;;;;;5030160;28;20081;-77
2023/05/19 10:58:06;;;;;;;9.07;3.28;;;;;;;;;;5031296;28;20033;-75
2023/05/19 11:00:33;;;;;;;6.20;3.38;;;;;;;;;;5031513;28;20076;-77
2023/05/19 11:03:22;;;;;;;4.00;3.03;;;;;;;;;;5032256;28;20044;-76
2023/05/19 11:05:51;;;;;;;5.57;3.03;;;;;;;;;;5032243;28;20496;-77
2023/05/19 11:08:30;;;;;;;6.53;3.58;;;;;;;;;;5031820;28;20033;-75
2023/05/19 11:10:56;;;;;;;5.82;3.50;;;;;;;;;;5032311;28;20026;-77
2023/05/19 11:13:26;;;;;;;6.50;3.08;;;;;;;;;;5032678;28;20033;-78
2023/05/19 11:15:52;;;;;;;4.88;3.38;;;;;;;;;;5032300;28;20026;-76
2023/05/19 11:18:20;;;;;;;6.80;3.00;;;;;;;;;;5031815;28;20091;-77
2023/05/19 11:21:05;;;;;;;7.30;3.72;;;;;;;;;;5032061;28;20436;-76
2023/05/19 11:23:40;;;;;;;7.93;4.03;;;;;;;;;;5016195;28;20045;-77
2023/05/19 11:26:12;;;;;;;8.80;3.10;;;;;;;;;;5031902;28;20029;-76
2023/05/19 11:28:41;;;;;;;5.97;2.97;;;;;;;;;;5032765;28;20022;-76
2023/05/19 11:31:09;;;;;;;5.60;3.08;;;;;;;;;;5033697;28;20026;-77
2023/05/19 11:33:44;;;;;;;6.32;2.60;;;;;;;;;;5036165;28;20075;-77
2023/05/19 11:36:22;;;;;;;5.78;2.90;;;;;;;;;;5033664;28;20714;-76
2023/05/19 11:38:49;;;;;;;5.53;2.83;;;;;;;;;;5030061;28;20033;-77
2023/05/19 11:41:17;;;;;;;5.50;2.80;;;;;;;;;;5032331;28;20079;-77
2023/05/19 11:43:46;;;;;;;5.10;2.90;;;;;;;;;;5031867;28;20033;-77
2023/05/19 11:46:15;;;;;;;12.32;2.95;;;;;;;;;;5032234;28;20018;-77
2023/05/19 11:48:43;;;;;;;5.05;2.63;;;;;;;;;;5030046;28;20384;-78
2023/05/19 11:51:09;;;;;;;6.25;3.15;;;;;;;;;;5032202;28;20056;-78
2023/05/19 11:53:41;;;;;;;4.70;2.60;;;;;;;;;;5032503;28;20125;-77
2023/05/19 11:56:21;;;;;;;5.78;2.78;;;;;;;;;;5036872;28;20502;-77
2023/05/19 11:58:52;;;;;;;6.22;2.92;;;;;;;;;;5031228;28;20037;-76
2023/05/19 12:01:19;;;;;;;5.82;2.65;;;;;;;;;;5050581;28;20033;-77
2023/05/19 12:03:50;;;;;;;3.75;2.20;;;;;;;;;;5051695;28;20028;-76
2023/05/19 12:06:26;;;;;;;6.35;2.80;;;;;;;;;;5033224;28;20447;-76
2023/05/19 12:09:20;;;;;;;3.47;2.50;;;;;;;;;;5033174;28;20031;-76
2023/05/19 12:11:47;;;;;;;7.10;2.58;;;;;;;;;;5051594;28;20032;-76
2023/05/19 12:14:19;;;;;;;4.63;2.22;;;;;;;;;;5050578;28;20032;-77
2023/05/19 12:16:48;;;;;;;4.43;2.47;;;;;;;;;;5051287;28;20365;-76
2023/05/19 12:19:20;;;;;;;5.45;2.72;;;;;;;;;;5051114;28;20021;-76
2023/05/19 12:21:48;;;;;;;2.90;2.50;;;;;;;;;;5051029;28;20067;-77
2023/05/19 12:24:18;;;;;;;10.38;2.92;;;;;;;;;;5051264;28;20476;-76
2023/05/19 12:26:52;;;;;;;4.03;3.00;;;;;;;;;;5051339;28;20029;-76
2023/05/19 12:29:18;;;;;;;6.57;2.70;;;;;;;;;;5049900;28;20057;-77
2023/05/19 12:31:55;;;;;;;7.07;2.92;;;;;;;;;;5051382;28;20426;-77
2023/05/19 12:34:23;;;;;;;6.47;2.35;;;;;;;;;;5050985;28;20020;-76
2023/05/19 12:36:55;;;;;;;5.97;2.72;;;;;;;;;;5051334;28;20136;-75
2023/05/19 12:39:33;;;;;;;3.63;2.67;;;;;;;;;;5031462;28;20052;-76
2023/05/19 12:42:15;;;;;;;6.18;3.38;;;;;;;;;;5049888;28;20403;-78
2023/05/19 12:47:40;;;;;;;3.97;3.05;;;;;;;;;;5021987;28;20029;-77
2023/05/19 12:50:13;;;;;;;5.50;3.45;;;;;;;;;;5017384;28;20018;-77
2023/05/19 12:52:45;;;;;;;4.47;3.22;;;;;;;;;;5037518;28;20541;-77
2023/05/19 12:55:12;;;;;;;4.25;3.10;;;;;;;;;;5055203;22;20045;-78
2023/05/19 12:57:40;;;;;;;4.38;2.97;;;;;;;;;;5070663;28;20033;-78
2023/05/19 13:00:16;;;;;;;5.80;3.15;;;;;;;;;;5068073;28;20029;-78
2023/05/19 13:02:54;;;;;;;5.20;3.22;;;;;;;;;;5047989;28;20025;-79
2023/05/19 13:05:21;;;;;;;3.88;3.22;;;;;;;;;;5060769;28;20024;-78
2023/05/19 13:08:13;;;;;;;7.18;3.53;;;;;;;;;;5039482;28;20060;-77
2023/05/19 13:10:40;;;;;;;5.43;3.75;;;;;;;;;;5006208;28;20029;-77
2023/05/19 13:13:06;;;;;;;9.27;3.97;;;;;;;;;;5018351;28;20335;-77
2023/05/19 13:15:34;;;;;;;7.10;4.03;;;;;;;;;;5018258;28;20077;-76
2023/05/19 13:18:02;;;;;;;7.72;3.90;;;;;;;;;;5018686;28;20033;-77
2023/05/19 13:20:28;;;;;;;8.57;3.88;;;;;;;;;;5037852;28;20032;-77
2023/05/19 13:22:54;;;;;;;5.38;4.07;;;;;;;;;;5037302;28;20029;-77
2023/05/19 13:25:20;;;;;;;5.68;3.55;;;;;;;;;;5036103;28;20488;-77
2023/05/19 13:27:46;;;;;;;6.15;4.20;;;;;;;;;;5017703;28;20094;-77
2023/05/19 13:30:13;;;;;;;7.55;4.38;;;;;;;;;;5036640;28;20048;-77
2023/05/19 13:32:39;;;;;;;5.15;3.97;;;;;;;;;;5019279;28;20023;-77
2023/05/19 13:35:05;;;;;;;8.38;3.88;;;;;;;;;;5037019;28;20021;-77
2023/05/19 13:37:31;;;;;;;7.10;3.80;;;;;;;;;;5036374;28;20029;-78
2023/05/19 13:39:57;;;;;;;5.57;3.80;;;;;;;;;;5037802;28;20112;-77
2023/05/19 13:42:23;;;;;;;5.90;3.90;;;;;;;;;;5038718;28;20394;-77
2023/05/19 13:44:49;;;;;;;6.05;3.50;;;;;;;;;;5020969;28;20514;-77
2023/05/19 13:47:15;;;;;;;5.28;4.05;;;;;;;;;;5039714;28;20052;-78
2023/05/19 13:49:41;;;;;;;8.70;3.92;;;;;;;;;;5045047;28;20021;-78
2023/05/19 13:52:07;;;;;;;4.90;3.50;;;;;;;;;;5039874;28;20112;-77
2023/05/19 13:54:33;;;;;;;6.47;4.20;;;;;;;;;;5022030;28;20049;-77
2023/05/19 13:57:01;;;;;;;5.72;4.00;;;;;;;;;;5022554;28;20026;-76
2023/05/19 13:59:27;;;;;;;7.30;4.30;;;;;;;;;;5040452;28;20025;-77
2023/05/19 14:01:53;;;;;;;6.97;4.45;;;;;;;;;;5024852;28;20030;-77
2023/05/19 14:04:19;;;;;;;4.63;3.67;;;;;;;;;;5040822;28;20471;-76
2023/05/19 14:06:45;;;;;;;7.93;5.80;;;;;;;;;;5019767;28;20025;-76
2023/05/19 14:09:12;;;;;;;6.53;3.55;;;;;;;;;;5036416;28;20049;-77
2023/05/19 14:11:38;;;;;;;9.55;4.32;;;;;;;;;;5038228;28;20096;-77
2023/05/19 14:14:04;;;;;;;8.10;4.10;;;;;;;;;;5037868;28;20080;-77
2023/05/19 14:16:30;;;;;;;5.85;4.20;;;;;;;;;;5042177;28;20080;-77
2023/05/19 14:18:56;;;;;;;6.75;3.90;;;;;;;;;;5040833;28;20021;-77
2023/05/19 14:21:23;;;;;;;7.07;4.25;;;;;;;;;;5044055;28;20025;-77
2023/05/19 14:23:49;;;;;;;9.80;4.35;;;;;;;;;;5025584;28;20030;-78
2023/05/19 14:26:15;;;;;;;7.22;4.20;;;;;;;;;;5043285;28;20026;-78
2023/05/19 14:28:41;;;;;;;8.35;4.38;;;;;;;;;;5023498;28;20036;-78
2023/05/19 14:31:13;;;;;;;7.22;4.70;;;;;;;;;;5024391;28;20022;-76
2023/05/19 14:33:40;;;;;;;6.60;4.18;;;;;;;;;;5038041;28;20048;-76
2023/05/19 14:36:06;;;;;;;6.18;4.65;;;;;;;;;;5038512;28;20026;-77
2023/05/19 14:38:32;;;;;;;10.45;5.10;;;;;;;;;;5036745;28;20026;-76
2023/05/19 14:40:59;;;;;;;6.47;4.55;;;;;;;;;;5037154;28;20135;-77
2023/05/19 14:43:24;;;;;;;9.38;4.93;;;;;;;;;;5038302;28;20515;-78
2023/05/19 14:45:50;;;;;;;6.65;4.88;;;;;;;;;;5038606;28;20112;-79
2023/05/19 14:48:17;;;;;;;6.50;4.82;;;;;;;;;;5036601;28;20033;-77